Airports

 

 

Airport Name Latest METAR Visual Conditions
Atlantic City Int. (ACY) KACY 211454Z 28007KT 10SM OVC008 04/04 A3002 RMK AO2 SLP168 T00440039 51019 IFR
Baltimore International Airport (BWI) KBWI 211454Z 24004KT 5SM BR FEW005 SCT060 BKN250 02/02 A3004 RMK AO2 SLP174 T00220017 51018 $ MVFR
Washington National Airport (DCA) KDCA 211452Z 08003KT 9SM FEW008 FEW140 BKN230 04/01 A3006 RMK AO2 SLP178 T00390011 51013 VFR
Dulles International Airport (IAD) KIAD 211452Z 00000KT 1/4SM R01R/1400V2000FT FG BKN002 OVC007 01/00 A3005 RMK AO2 SLP179 T00060000 51016 LIFR
Norfolk International Airport (ORF) KORF 211451Z 23009KT 10SM BKN007 BKN015 OVC021 09/08 A3006 RMK AO2 RAB13E36 SLP178 P0000 60000 T00890078 50000 IFR
Raleigh International Airport (RDU) KRDU 211451Z 25003KT 1/4SM -RA BR OVC002 06/06 A3014 RMK AO2 SFC VIS 1 RAB49 SLP210 P0000 60000 T00560056 51025 RVRNO LIFR
Richmond International Airport (RIC) KRIC 211454Z COR 26007KT 10SM FEW010 FEW050 BKN070 BKN180 08/06 A3007 RMK AO2 SLP189 T00780056 53019 VFR
Roanoke Regional Airport (ROA) KROA 211454Z 28011KT 10SM SCT028 09/06 A3011 RMK AO2 SLP199 T00890061 53017 VFR